sensor_id;sensor_type;location;lat;lon;timestamp;pressure;altitude;pressure_sealevel;temperature;humidity
61963;BME280;47927;42.646;23.096;2023-08-01T00:00:03;91923.22;;;18.58;58.41
61963;BME280;47927;42.646;23.096;2023-08-01T00:02:37;91911.44;;;18.63;57.84
61963;BME280;47927;42.646;23.096;2023-08-01T00:05:03;91913.88;;;18.70;57.56
61963;BME280;47927;42.646;23.096;2023-08-01T00:07:29;91919.59;;;18.68;57.41
61963;BME280;47927;42.646;23.096;2023-08-01T00:09:54;91919.25;;;18.66;57.59
61963;BME280;47927;42.646;23.096;2023-08-01T00:12:20;91915.56;;;18.64;57.94
61963;BME280;47927;42.646;23.096;2023-08-01T00:14:46;91919.25;;;18.66;57.69
61963;BME280;47927;42.646;23.096;2023-08-01T00:17:11;91917.78;;;18.65;57.86
61963;BME280;47927;42.646;23.096;2023-08-01T00:19:37;91912.81;;;18.67;57.90
61963;BME280;47927;42.646;23.096;2023-08-01T00:22:02;91907.88;;;18.70;57.63
61963;BME280;47927;42.646;23.096;2023-08-01T00:24:28;91914.91;;;18.60;58.13
61963;BME280;47927;42.646;23.096;2023-08-01T00:26:53;91915.97;;;18.62;57.90
61963;BME280;47927;42.646;23.096;2023-08-01T00:29:21;91915.16;;;18.65;57.73
61963;BME280;47927;42.646;23.096;2023-08-01T00:31:47;91900.97;;;18.59;57.44
61963;BME280;47927;42.646;23.096;2023-08-01T00:34:12;91913.66;;;18.64;57.63
61963;BME280;47927;42.646;23.096;2023-08-01T00:36:38;91907.91;;;18.53;57.74
61963;BME280;47927;42.646;23.096;2023-08-01T00:39:04;91918.03;;;18.55;57.58
61963;BME280;47927;42.646;23.096;2023-08-01T00:41:29;91914.34;;;18.52;57.55
61963;BME280;47927;42.646;23.096;2023-08-01T00:43:55;91911.88;;;18.45;57.34
61963;BME280;47927;42.646;23.096;2023-08-01T00:46:21;91903.31;;;18.41;57.51
61963;BME280;47927;42.646;23.096;2023-08-01T00:48:46;91906.84;;;18.34;57.52
61963;BME280;47927;42.646;23.096;2023-08-01T00:51:12;91904.22;;;18.34;57.71
61963;BME280;47927;42.646;23.096;2023-08-01T00:53:39;91902.59;;;18.24;57.67
61963;BME280;47927;42.646;23.096;2023-08-01T00:56:05;91899.72;;;18.18;58.22
61963;BME280;47927;42.646;23.096;2023-08-01T00:58:31;91901.34;;;17.80;59.46
61963;BME280;47927;42.646;23.096;2023-08-01T01:00:56;91899.53;;;17.93;58.80
61963;BME280;47927;42.646;23.096;2023-08-01T01:03:22;91901.69;;;17.98;58.77
61963;BME280;47927;42.646;23.096;2023-08-01T01:06:09;91898.22;;;18.01;58.18
61963;BME280;47927;42.646;23.096;2023-08-01T01:08:37;91903.59;;;17.97;58.08
61963;BME280;47927;42.646;23.096;2023-08-01T01:11:02;91888.81;;;17.84;58.30
61963;BME280;47927;42.646;23.096;2023-08-01T01:13:29;91871.19;;;17.81;58.35
61963;BME280;47927;42.646;23.096;2023-08-01T01:15:55;91887.47;;;17.75;58.65
61963;BME280;47927;42.646;23.096;2023-08-01T01:18:21;91891.00;;;17.69;58.88
61963;BME280;47927;42.646;23.096;2023-08-01T01:20:46;91880.31;;;17.76;58.49
61963;BME280;47927;42.646;23.096;2023-08-01T01:23:12;91876.53;;;17.77;58.34
61963;BME280;47927;42.646;23.096;2023-08-01T01:25:38;91883.34;;;17.74;58.11
61963;BME280;47927;42.646;23.096;2023-08-01T01:28:04;91877.34;;;17.74;58.12
61963;BME280;47927;42.646;23.096;2023-08-01T01:30:32;91881.31;;;17.46;59.10
61963;BME280;47927;42.646;23.096;2023-08-01T01:33:01;91880.28;;;17.43;59.05
61963;BME280;47927;42.646;23.096;2023-08-01T01:35:27;91869.16;;;17.36;59.64
61963;BME280;47927;42.646;23.096;2023-08-01T01:37:53;91877.56;;;17.47;58.68
61963;BME280;47927;42.646;23.096;2023-08-01T01:40:18;91875.16;;;17.36;59.07
61963;BME280;47927;42.646;23.096;2023-08-01T01:42:44;91887.75;;;17.45;58.60
61963;BME280;47927;42.646;23.096;2023-08-01T01:45:09;91883.66;;;17.44;58.33
61963;BME280;47927;42.646;23.096;2023-08-01T01:47:36;91879.03;;;17.48;58.38
61963;BME280;47927;42.646;23.096;2023-08-01T01:50:01;91882.31;;;17.36;58.52
61963;BME280;47927;42.646;23.096;2023-08-01T01:52:27;91882.56;;;17.41;58.73
61963;BME280;47927;42.646;23.096;2023-08-01T01:54:52;91889.22;;;17.46;58.08
61963;BME280;47927;42.646;23.096;2023-08-01T01:57:18;91881.69;;;17.28;58.43
61963;BME280;47927;42.646;23.096;2023-08-01T01:59:43;91881.66;;;17.31;58.11
61963;BME280;47927;42.646;23.096;2023-08-01T02:02:09;91890.53;;;17.38;57.99
61963;BME280;47927;42.646;23.096;2023-08-01T02:04:35;91883.47;;;17.35;57.64
61963;BME280;47927;42.646;23.096;2023-08-01T02:07:00;91885.66;;;17.20;57.96
61963;BME280;47927;42.646;23.096;2023-08-01T02:09:26;91887.84;;;17.21;58.03
61963;BME280;47927;42.646;23.096;2023-08-01T02:11:52;91889.41;;;17.19;57.90
61963;BME280;47927;42.646;23.096;2023-08-01T02:14:18;91888.09;;;17.11;57.87
61963;BME280;47927;42.646;23.096;2023-08-01T02:16:43;91885.13;;;17.08;58.31
61963;BME280;47927;42.646;23.096;2023-08-01T02:19:09;91884.03;;;17.06;58.39
61963;BME280;47927;42.646;23.096;2023-08-01T02:21:36;91881.41;;;17.06;58.06
61963;BME280;47927;42.646;23.096;2023-08-01T02:24:02;91878.97;;;16.95;58.40
61963;BME280;47927;42.646;23.096;2023-08-01T02:26:28;91873.19;;;16.84;59.29
61963;BME280;47927;42.646;23.096;2023-08-01T02:28:54;91875.50;;;16.58;60.13
61963;BME280;47927;42.646;23.096;2023-08-01T02:31:20;91878.75;;;16.66;60.07
61963;BME280;47927;42.646;23.096;2023-08-01T02:33:46;91879.41;;;16.70;59.51
61963;BME280;47927;42.646;23.096;2023-08-01T02:36:11;91877.00;;;16.79;59.61
61963;BME280;47927;42.646;23.096;2023-08-01T02:38:37;91877.81;;;16.76;59.26
61963;BME280;47927;42.646;23.096;2023-08-01T02:41:21;91876.50;;;16.64;59.32
61963;BME280;47927;42.646;23.096;2023-08-01T02:43:46;91880.06;;;16.78;58.86
61963;BME280;47927;42.646;23.096;2023-08-01T02:46:12;91884.91;;;16.79;58.48
61963;BME280;47927;42.646;23.096;2023-08-01T02:48:37;91887.88;;;16.81;58.02
61963;BME280;47927;42.646;23.096;2023-08-01T02:51:03;91887.97;;;16.78;58.21
61963;BME280;47927;42.646;23.096;2023-08-01T02:53:28;91886.84;;;16.75;58.43
61963;BME280;47927;42.646;23.096;2023-08-01T02:55:54;91884.59;;;16.74;58.34
61963;BME280;47927;42.646;23.096;2023-08-01T02:58:38;91882.94;;;16.63;58.72
61963;BME280;47927;42.646;23.096;2023-08-01T03:01:07;91883.00;;;16.60;58.75
61963;BME280;47927;42.646;23.096;2023-08-01T03:03:53;91887.72;;;16.25;59.52
61963;BME280;47927;42.646;23.096;2023-08-01T03:06:18;91891.78;;;16.06;60.35
61963;BME280;47927;42.646;23.096;2023-08-01T03:08:45;91889.38;;;16.15;60.54
61963;BME280;47927;42.646;23.096;2023-08-01T03:11:10;91890.00;;;16.23;60.20
61963;BME280;47927;42.646;23.096;2023-08-01T03:13:36;91885.75;;;16.29;59.96
61963;BME280;47927;42.646;23.096;2023-08-01T03:16:01;91894.34;;;16.33;59.61
61963;BME280;47927;42.646;23.096;2023-08-01T03:18:29;91890.13;;;16.16;59.94
61963;BME280;47927;42.646;23.096;2023-08-01T03:21:13;91887.94;;;16.34;59.41
61963;BME280;47927;42.646;23.096;2023-08-01T03:23:39;91896.31;;;16.49;58.73
61963;BME280;47927;42.646;23.096;2023-08-01T03:26:05;91895.16;;;16.50;59.00
61963;BME280;47927;42.646;23.096;2023-08-01T03:28:48;91893.06;;;16.41;59.37
61963;BME280;47927;42.646;23.096;2023-08-01T03:31:14;91897.75;;;16.54;58.63
61963;BME280;47927;42.646;23.096;2023-08-01T03:33:40;91899.56;;;16.57;58.56
61963;BME280;47927;42.646;23.096;2023-08-01T03:36:07;91891.69;;;16.57;58.51
61963;BME280;47927;42.646;23.096;2023-08-01T03:38:32;91889.72;;;16.61;58.28
61963;BME280;47927;42.646;23.096;2023-08-01T03:40:58;91890.06;;;16.63;58.04
61963;BME280;47927;42.646;23.096;2023-08-01T03:43:23;91892.63;;;16.67;58.36
61963;BME280;47927;42.646;23.096;2023-08-01T03:45:50;91893.84;;;16.62;58.34
61963;BME280;47927;42.646;23.096;2023-08-01T03:48:15;91905.16;;;16.59;58.37
61963;BME280;47927;42.646;23.096;2023-08-01T03:50:41;91901.94;;;16.71;58.75
61963;BME280;47927;42.646;23.096;2023-08-01T03:53:06;91903.41;;;16.76;58.32
61963;BME280;47927;42.646;23.096;2023-08-01T03:55:32;91899.78;;;16.90;58.27
61963;BME280;47927;42.646;23.096;2023-08-01T03:57:58;91904.59;;;16.91;58.12
61963;BME280;47927;42.646;23.096;2023-08-01T04:00:24;91918.44;;;16.95;57.85
61963;BME280;47927;42.646;23.096;2023-08-01T04:02:50;91908.06;;;17.08;57.64
61963;BME280;47927;42.646;23.096;2023-08-01T04:05:17;91906.34;;;17.18;57.26
61963;BME280;47927;42.646;23.096;2023-08-01T04:07:43;91906.22;;;17.25;57.15
61963;BME280;47927;42.646;23.096;2023-08-01T04:10:09;91914.25;;;17.38;56.97
61963;BME280;47927;42.646;23.096;2023-08-01T04:12:34;91906.53;;;17.47;56.90
61963;BME280;47927;42.646;23.096;2023-08-01T04:15:19;91906.09;;;17.48;56.71
61963;BME280;47927;42.646;23.096;2023-08-01T04:17:44;91916.91;;;18.23;55.53
61963;BME280;47927;42.646;23.096;2023-08-01T04:20:10;91914.50;;;20.00;51.91
61963;BME280;47927;42.646;23.096;2023-08-01T04:22:36;91920.13;;;21.63;48.53
61963;BME280;47927;42.646;23.096;2023-08-01T04:25:01;91919.88;;;22.79;45.57
61963;BME280;47927;42.646;23.096;2023-08-01T04:27:27;91911.13;;;23.52;43.44
61963;BME280;47927;42.646;23.096;2023-08-01T04:29:54;91910.41;;;24.27;41.12
61963;BME280;47927;42.646;23.096;2023-08-01T04:32:20;91909.50;;;24.87;39.83
61963;BME280;47927;42.646;23.096;2023-08-01T04:34:45;91908.25;;;25.12;39.51
61963;BME280;47927;42.646;23.096;2023-08-01T04:37:11;91899.66;;;25.47;38.23
61963;BME280;47927;42.646;23.096;2023-08-01T04:39:36;91908.59;;;25.44;38.18
61963;BME280;47927;42.646;23.096;2023-08-01T04:42:02;91905.53;;;25.36;38.91
61963;BME280;47927;42.646;23.096;2023-08-01T04:44:28;91911.41;;;26.00;37.52
61963;BME280;47927;42.646;23.096;2023-08-01T04:46:55;91907.56;;;26.36;36.26
61963;BME280;47927;42.646;23.096;2023-08-01T04:49:20;91903.50;;;25.76;38.24
61963;BME280;47927;42.646;23.096;2023-08-01T04:51:47;91907.66;;;25.77;38.57
61963;BME280;47927;42.646;23.096;2023-08-01T04:54:12;91909.50;;;25.26;39.47
61963;BME280;47927;42.646;23.096;2023-08-01T04:56:38;91903.38;;;25.11;40.18
61963;BME280;47927;42.646;23.096;2023-08-01T04:59:03;91911.16;;;25.68;39.50
61963;BME280;47927;42.646;23.096;2023-08-01T05:01:29;91907.28;;;25.99;39.14
61963;BME280;47927;42.646;23.096;2023-08-01T05:03:55;91910.25;;;26.36;38.43
61963;BME280;47927;42.646;23.096;2023-08-01T05:06:21;91906.16;;;26.76;38.31
61963;BME280;47927;42.646;23.096;2023-08-01T05:08:46;91904.31;;;27.08;37.23
61963;BME280;47927;42.646;23.096;2023-08-01T05:11:12;91912.31;;;27.81;35.30
61963;BME280;47927;42.646;23.096;2023-08-01T05:13:37;91910.19;;;28.59;34.00
61963;BME280;47927;42.646;23.096;2023-08-01T05:16:03;91907.06;;;29.43;33.03
61963;BME280;47927;42.646;23.096;2023-08-01T05:18:29;91906.09;;;30.48;31.60
61963;BME280;47927;42.646;23.096;2023-08-01T05:20:54;91920.16;;;30.93;29.62
61963;BME280;47927;42.646;23.096;2023-08-01T05:23:20;91918.69;;;32.47;28.45
61963;BME280;47927;42.646;23.096;2023-08-01T05:25:45;91919.47;;;34.63;24.18
61963;BME280;47927;42.646;23.096;2023-08-01T05:28:11;91917.31;;;35.83;22.83
61963;BME280;47927;42.646;23.096;2023-08-01T05:30:37;91914.72;;;37.26;21.42
61963;BME280;47927;42.646;23.096;2023-08-01T05:33:03;91924.00;;;38.05;19.41
61963;BME280;47927;42.646;23.096;2023-08-01T05:35:28;91921.78;;;39.04;19.58
61963;BME280;47927;42.646;23.096;2023-08-01T05:37:54;91930.00;;;39.44;19.80
61963;BME280;47927;42.646;23.096;2023-08-01T05:40:19;91928.97;;;40.80;17.41
61963;BME280;47927;42.646;23.096;2023-08-01T05:42:45;91933.47;;;41.20;16.69
61963;BME280;47927;42.646;23.096;2023-08-01T05:45:10;91918.41;;;41.63;16.28
61963;BME280;47927;42.646;23.096;2023-08-01T05:47:37;91917.38;;;41.86;16.62
61963;BME280;47927;42.646;23.096;2023-08-01T05:50:03;91920.41;;;42.54;15.77
61963;BME280;47927;42.646;23.096;2023-08-01T05:52:29;91928.44;;;43.28;15.21
61963;BME280;47927;42.646;23.096;2023-08-01T05:54:55;91926.75;;;44.12;14.22
61963;BME280;47927;42.646;23.096;2023-08-01T05:57:20;91926.06;;;44.64;13.59
61963;BME280;47927;42.646;23.096;2023-08-01T05:59:46;91925.31;;;44.95;13.60
61963;BME280;47927;42.646;23.096;2023-08-01T06:02:11;91929.19;;;44.08;14.17
61963;BME280;47927;42.646;23.096;2023-08-01T06:04:55;91920.47;;;45.05;13.42
61963;BME280;47927;42.646;23.096;2023-08-01T06:07:21;91923.72;;;44.70;13.33
61963;BME280;47927;42.646;23.096;2023-08-01T06:09:49;91921.38;;;45.41;13.11
61963;BME280;47927;42.646;23.096;2023-08-01T06:12:18;91920.53;;;45.83;12.91
61963;BME280;47927;42.646;23.096;2023-08-01T06:14:43;91923.25;;;46.40;12.12
61963;BME280;47927;42.646;23.096;2023-08-01T06:17:09;91933.88;;;46.10;12.09
61963;BME280;47927;42.646;23.096;2023-08-01T06:19:35;91937.63;;;46.27;12.47
61963;BME280;47927;42.646;23.096;2023-08-01T06:22:00;91923.59;;;46.70;11.66
61963;BME280;47927;42.646;23.096;2023-08-01T06:24:26;91929.44;;;46.64;11.89
61963;BME280;47927;42.646;23.096;2023-08-01T06:26:51;91919.22;;;47.51;12.18
61963;BME280;47927;42.646;23.096;2023-08-01T06:29:17;91925.53;;;47.54;11.59
61963;BME280;47927;42.646;23.096;2023-08-01T06:31:42;91927.75;;;47.94;11.23
61963;BME280;47927;42.646;23.096;2023-08-01T06:34:08;91912.09;;;46.73;11.90
61963;BME280;47927;42.646;23.096;2023-08-01T06:36:33;91926.22;;;45.97;12.65
61963;BME280;47927;42.646;23.096;2023-08-01T06:38:59;91918.16;;;47.33;11.52
61963;BME280;47927;42.646;23.096;2023-08-01T06:41:25;91912.69;;;47.21;12.25
61963;BME280;47927;42.646;23.096;2023-08-01T06:43:51;91919.25;;;47.65;11.21
61963;BME280;47927;42.646;23.096;2023-08-01T06:46:16;91924.94;;;47.18;11.41
61963;BME280;47927;42.646;23.096;2023-08-01T06:48:42;91912.94;;;47.25;11.88
61963;BME280;47927;42.646;23.096;2023-08-01T06:51:07;91911.94;;;47.32;11.45
61963;BME280;47927;42.646;23.096;2023-08-01T06:53:33;91913.69;;;47.77;11.28
61963;BME280;47927;42.646;23.096;2023-08-01T06:55:58;91916.38;;;48.69;10.43
61963;BME280;47927;42.646;23.096;2023-08-01T06:58:24;91910.97;;;48.04;11.37
61963;BME280;47927;42.646;23.096;2023-08-01T07:00:49;91909.81;;;48.35;10.30
61963;BME280;47927;42.646;23.096;2023-08-01T07:03:15;91910.31;;;47.53;11.38
61963;BME280;47927;42.646;23.096;2023-08-01T07:05:40;91916.34;;;47.49;11.39
61963;BME280;47927;42.646;23.096;2023-08-01T07:08:06;91914.19;;;47.10;11.43
61963;BME280;47927;42.646;23.096;2023-08-01T07:10:34;91910.81;;;47.49;11.20
61963;BME280;47927;42.646;23.096;2023-08-01T07:13:00;91907.69;;;47.68;10.64
61963;BME280;47927;42.646;23.096;2023-08-01T07:15:32;91910.78;;;47.75;10.88
61963;BME280;47927;42.646;23.096;2023-08-01T07:17:58;91901.22;;;48.15;10.88
61963;BME280;47927;42.646;23.096;2023-08-01T07:20:23;91902.06;;;48.87;10.37
61963;BME280;47927;42.646;23.096;2023-08-01T07:22:49;91900.63;;;48.58;10.18
61963;BME280;47927;42.646;23.096;2023-08-01T07:25:14;91900.75;;;49.17;9.51
61963;BME280;47927;42.646;23.096;2023-08-01T07:27:41;91898.88;;;48.92;9.65
61963;BME280;47927;42.646;23.096;2023-08-01T07:30:07;91906.09;;;49.57;9.90
61963;BME280;47927;42.646;23.096;2023-08-01T07:32:34;91896.31;;;49.85;9.86
61963;BME280;47927;42.646;23.096;2023-08-01T07:35:00;91899.59;;;48.24;10.47
61963;BME280;47927;42.646;23.096;2023-08-01T07:37:25;91900.88;;;48.09;10.87
61963;BME280;47927;42.646;23.096;2023-08-01T07:39:54;91903.69;;;48.36;10.13
61963;BME280;47927;42.646;23.096;2023-08-01T07:42:20;91904.19;;;48.47;9.92
61963;BME280;47927;42.646;23.096;2023-08-01T07:44:46;91897.84;;;48.58;10.46
61963;BME280;47927;42.646;23.096;2023-08-01T07:47:11;91895.50;;;48.94;10.44
61963;BME280;47927;42.646;23.096;2023-08-01T07:49:37;91897.69;;;48.01;10.82
61963;BME280;47927;42.646;23.096;2023-08-01T07:52:02;91900.44;;;47.61;11.00
61963;BME280;47927;42.646;23.096;2023-08-01T07:54:28;91884.34;;;47.83;11.28
61963;BME280;47927;42.646;23.096;2023-08-01T07:56:53;91883.69;;;47.71;11.14
61963;BME280;47927;42.646;23.096;2023-08-01T07:59:19;91885.09;;;46.95;11.87
61963;BME280;47927;42.646;23.096;2023-08-01T08:01:44;91890.47;;;46.93;12.36
61963;BME280;47927;42.646;23.096;2023-08-01T08:04:10;91883.88;;;47.10;11.34
61963;BME280;47927;42.646;23.096;2023-08-01T08:06:36;91880.00;;;46.66;12.28
61963;BME280;47927;42.646;23.096;2023-08-01T08:09:02;91872.28;;;46.88;11.55
61963;BME280;47927;42.646;23.096;2023-08-01T08:11:28;91880.06;;;47.29;10.96
61963;BME280;47927;42.646;23.096;2023-08-01T08:13:53;91874.88;;;47.35;11.57
61963;BME280;47927;42.646;23.096;2023-08-01T08:16:19;91882.53;;;47.11;11.03
61963;BME280;47927;42.646;23.096;2023-08-01T08:18:45;91874.94;;;47.49;10.56
61963;BME280;47927;42.646;23.096;2023-08-01T08:21:10;91880.53;;;46.88;11.75
61963;BME280;47927;42.646;23.096;2023-08-01T08:23:36;91875.69;;;45.92;12.06
61963;BME280;47927;42.646;23.096;2023-08-01T08:26:01;91868.94;;;45.72;12.48
61963;BME280;47927;42.646;23.096;2023-08-01T08:28:29;91874.84;;;46.13;12.23
61963;BME280;47927;42.646;23.096;2023-08-01T08:30:55;91863.34;;;46.52;11.65
61963;BME280;47927;42.646;23.096;2023-08-01T08:33:21;91865.03;;;46.57;12.06
61963;BME280;47927;42.646;23.096;2023-08-01T08:35:49;91865.91;;;44.90;13.22
61963;BME280;47927;42.646;23.096;2023-08-01T08:38:16;91859.25;;;42.32;15.46
61963;BME280;47927;42.646;23.096;2023-08-01T08:40:52;91847.81;;;43.21;15.02
61963;BME280;47927;42.646;23.096;2023-08-01T08:43:20;91843.88;;;43.34;13.92
61963;BME280;47927;42.646;23.096;2023-08-01T08:45:47;91853.72;;;44.50;13.73
61963;BME280;47927;42.646;23.096;2023-08-01T08:48:18;91850.06;;;44.57;12.81
61963;BME280;47927;42.646;23.096;2023-08-01T08:50:45;91845.97;;;44.15;14.08
61963;BME280;47927;42.646;23.096;2023-08-01T08:53:11;91847.03;;;44.31;13.54
61963;BME280;47927;42.646;23.096;2023-08-01T08:55:39;91846.72;;;44.58;13.85
61963;BME280;47927;42.646;23.096;2023-08-01T08:58:05;91846.09;;;45.24;12.70
61963;BME280;47927;42.646;23.096;2023-08-01T09:00:31;91847.59;;;45.37;12.36
61963;BME280;47927;42.646;23.096;2023-08-01T09:02:57;91836.59;;;45.49;12.88
61963;BME280;47927;42.646;23.096;2023-08-01T09:05:27;91838.81;;;44.96;12.95
61963;BME280;47927;42.646;23.096;2023-08-01T09:07:55;91803.16;;;44.65;13.84
61963;BME280;47927;42.646;23.096;2023-08-01T09:10:22;91838.34;;;44.99;12.25
61963;BME280;47927;42.646;23.096;2023-08-01T09:12:48;91831.31;;;44.01;13.44
61963;BME280;47927;42.646;23.096;2023-08-01T09:15:13;91833.78;;;42.68;14.60
61963;BME280;47927;42.646;23.096;2023-08-01T09:17:50;91828.47;;;41.40;14.97
61963;BME280;47927;42.646;23.096;2023-08-01T09:20:16;91832.66;;;41.69;15.97
61963;BME280;47927;42.646;23.096;2023-08-01T09:22:45;91822.09;;;41.11;16.39
61963;BME280;47927;42.646;23.096;2023-08-01T09:25:12;91820.97;;;41.14;16.32
61963;BME280;47927;42.646;23.096;2023-08-01T09:27:38;91817.41;;;41.65;15.64
61963;BME280;47927;42.646;23.096;2023-08-01T09:30:11;91827.25;;;42.25;14.97
61963;BME280;47927;42.646;23.096;2023-08-01T09:32:39;91816.34;;;41.07;15.60
61963;BME280;47927;42.646;23.096;2023-08-01T09:35:05;91813.78;;;40.91;15.66
61963;BME280;47927;42.646;23.096;2023-08-01T09:37:41;91820.91;;;40.35;16.15
61963;BME280;47927;42.646;23.096;2023-08-01T09:40:11;91817.50;;;39.84;16.77
61963;BME280;47927;42.646;23.096;2023-08-01T09:42:45;91812.06;;;39.51;16.85
61963;BME280;47927;42.646;23.096;2023-08-01T09:45:12;91809.09;;;39.90;16.97
61963;BME280;47927;42.646;23.096;2023-08-01T09:47:39;91808.94;;;40.30;15.83
61963;BME280;47927;42.646;23.096;2023-08-01T09:50:05;91795.75;;;40.19;16.12
61963;BME280;47927;42.646;23.096;2023-08-01T09:52:30;91801.63;;;40.32;15.52
61963;BME280;47927;42.646;23.096;2023-08-01T09:54:56;91794.38;;;40.10;16.16
61963;BME280;47927;42.646;23.096;2023-08-01T09:57:22;91783.94;;;38.68;16.71
61963;BME280;47927;42.646;23.096;2023-08-01T09:59:48;91789.38;;;39.08;17.32
61963;BME280;47927;42.646;23.096;2023-08-01T10:02:15;91795.03;;;38.55;17.48
61963;BME280;47927;42.646;23.096;2023-08-01T10:04:41;91793.78;;;37.40;16.34
61963;BME280;47927;42.646;23.096;2023-08-01T10:07:11;91785.81;;;38.42;16.62
61963;BME280;47927;42.646;23.096;2023-08-01T10:09:37;91779.50;;;38.17;15.29
61963;BME280;47927;42.646;23.096;2023-08-01T10:12:04;91776.69;;;38.55;15.19
61963;BME280;47927;42.646;23.096;2023-08-01T10:14:32;91771.81;;;38.61;15.62
61963;BME280;47927;42.646;23.096;2023-08-01T10:16:57;91774.56;;;38.30;15.90
61963;BME280;47927;42.646;23.096;2023-08-01T10:19:23;91769.72;;;38.85;16.39
61963;BME280;47927;42.646;23.096;2023-08-01T10:21:51;91765.53;;;39.24;16.01
61963;BME280;47927;42.646;23.096;2023-08-01T10:24:17;91762.34;;;39.03;15.89
61963;BME280;47927;42.646;23.096;2023-08-01T10:26:46;91761.50;;;39.25;15.45
61963;BME280;47927;42.646;23.096;2023-08-01T10:29:11;91773.19;;;38.85;16.31
61963;BME280;47927;42.646;23.096;2023-08-01T10:31:37;91769.97;;;39.12;14.95
61963;BME280;47927;42.646;23.096;2023-08-01T10:34:05;91765.72;;;38.86;15.02
61963;BME280;47927;42.646;23.096;2023-08-01T10:36:31;91764.28;;;37.68;15.78
61963;BME280;47927;42.646;23.096;2023-08-01T10:39:01;91751.91;;;37.21;16.18
61963;BME280;47927;42.646;23.096;2023-08-01T10:41:31;91753.34;;;36.55;17.16
61963;BME280;47927;42.646;23.096;2023-08-01T10:44:07;91755.41;;;35.55;17.67
61963;BME280;47927;42.646;23.096;2023-08-01T10:46:55;91745.00;;;35.46;17.58
61963;BME280;47927;42.646;23.096;2023-08-01T10:49:33;91738.59;;;35.35;18.05
61963;BME280;47927;42.646;23.096;2023-08-01T10:52:01;91743.31;;;35.01;18.08
61963;BME280;47927;42.646;23.096;2023-08-01T10:54:26;91733.03;;;35.83;17.23
61963;BME280;47927;42.646;23.096;2023-08-01T10:56:55;91725.44;;;35.39;16.40
61963;BME280;47927;42.646;23.096;2023-08-01T10:59:21;91720.91;;;35.84;17.85
61963;BME280;47927;42.646;23.096;2023-08-01T11:01:52;91719.06;;;36.36;17.33
61963;BME280;47927;42.646;23.096;2023-08-01T11:04:21;91709.53;;;36.50;16.83
61963;BME280;47927;42.646;23.096;2023-08-01T11:06:52;91729.03;;;35.13;17.39
61963;BME280;47927;42.646;23.096;2023-08-01T11:09:23;91712.38;;;34.01;18.13
61963;BME280;47927;42.646;23.096;2023-08-01T11:11:52;91713.22;;;34.22;18.41
61963;BME280;47927;42.646;23.096;2023-08-01T11:14:25;91713.59;;;34.00;18.17
61963;BME280;47927;42.646;23.096;2023-08-01T11:16:51;91699.66;;;33.10;20.42
61963;BME280;47927;42.646;23.096;2023-08-01T11:19:23;91706.59;;;32.87;20.04
61963;BME280;47927;42.646;23.096;2023-08-01T11:21:50;91696.78;;;33.80;18.12
61963;BME280;47927;42.646;23.096;2023-08-01T11:24:17;91699.06;;;34.77;17.96
61963;BME280;47927;42.646;23.096;2023-08-01T11:27:02;91684.50;;;35.64;16.63
61963;BME280;47927;42.646;23.096;2023-08-01T11:29:28;91688.53;;;35.78;16.59
61963;BME280;47927;42.646;23.096;2023-08-01T11:31:58;91679.44;;;35.68;16.77
61963;BME280;47927;42.646;23.096;2023-08-01T11:34:23;91691.28;;;34.13;18.00
61963;BME280;47927;42.646;23.096;2023-08-01T11:36:50;91688.78;;;33.62;19.48
61963;BME280;47927;42.646;23.096;2023-08-01T11:39:16;91687.78;;;33.32;19.93
61963;BME280;47927;42.646;23.096;2023-08-01T11:41:43;91684.00;;;33.81;19.46
61963;BME280;47927;42.646;23.096;2023-08-01T11:44:08;91682.75;;;32.59;20.60
61963;BME280;47927;42.646;23.096;2023-08-01T11:46:37;91680.59;;;31.95;19.96
61963;BME280;47927;42.646;23.096;2023-08-01T11:49:07;91680.13;;;32.34;19.73
61963;BME280;47927;42.646;23.096;2023-08-01T11:51:40;91684.75;;;32.72;21.33
61963;BME280;47927;42.646;23.096;2023-08-01T11:54:06;91676.41;;;33.07;18.41
61963;BME280;47927;42.646;23.096;2023-08-01T11:56:33;91678.66;;;33.35;20.45
61963;BME280;47927;42.646;23.096;2023-08-01T11:58:59;91681.81;;;33.66;20.08
61963;BME280;47927;42.646;23.096;2023-08-01T12:01:25;91675.69;;;32.56;20.06
61963;BME280;47927;42.646;23.096;2023-08-01T12:03:54;91670.44;;;32.63;20.47
61963;BME280;47927;42.646;23.096;2023-08-01T12:06:22;91670.88;;;33.45;19.76
61963;BME280;47927;42.646;23.096;2023-08-01T12:08:50;91663.00;;;34.27;18.56
61963;BME280;47927;42.646;23.096;2023-08-01T12:11:27;91644.16;;;34.69;18.38
61963;BME280;47927;42.646;23.096;2023-08-01T12:14:03;91648.56;;;35.01;17.99
61963;BME280;47927;42.646;23.096;2023-08-01T12:16:29;91651.22;;;35.35;18.45
61963;BME280;47927;42.646;23.096;2023-08-01T12:18:55;91653.78;;;34.57;18.89
61963;BME280;47927;42.646;23.096;2023-08-01T12:21:40;91649.53;;;33.74;18.98
61963;BME280;47927;42.646;23.096;2023-08-01T12:24:05;91649.94;;;33.65;20.01
61963;BME280;47927;42.646;23.096;2023-08-01T12:26:30;91644.75;;;33.53;19.64
61963;BME280;47927;42.646;23.096;2023-08-01T12:28:56;91637.44;;;33.48;20.96
61963;BME280;47927;42.646;23.096;2023-08-01T12:31:22;91653.50;;;33.27;21.10
61963;BME280;47927;42.646;23.096;2023-08-01T12:33:48;91640.94;;;32.52;20.72
61963;BME280;47927;42.646;23.096;2023-08-01T12:36:16;91636.31;;;32.66;21.22
61963;BME280;47927;42.646;23.096;2023-08-01T12:38:41;91646.38;;;32.98;21.25
61963;BME280;47927;42.646;23.096;2023-08-01T12:41:07;91642.31;;;33.23;20.91
61963;BME280;47927;42.646;23.096;2023-08-01T12:43:33;91645.72;;;33.37;20.58
61963;BME280;47927;42.646;23.096;2023-08-01T12:45:59;91638.28;;;33.83;19.97
61963;BME280;47927;42.646;23.096;2023-08-01T12:48:25;91631.72;;;34.05;19.86